<?xml version="1.0" encoding="UTF-8" standalone="no" ?>
<gpx xmlns="http://www.topografix.com/GPX/1/1" xmlns:xsi="http://www.w3.org/2001/XMLSchema-instance" xsi:schemaLocation="http://www.topografix.com/GPX/1/1 http://www.topografix.com/GPX/1/1/gpx.xsd" version="1.1" creator="VisuGPX - https://www.visugpx.com">
  <metadata>
    <name>GR36 LACROUZETTE ARIFAT</name>
  </metadata>
  <trk>
    <name><![CDATA[GR36 LACROUZETTE ARIFAT_2]]></name>
    <extensions>
      <line xmlns="http://www.topografix.com/GPX/gpx_style/0/2">
        <color>ff00f7</color>
        <width>4</width>
      </line>
    </extensions>
    <trkseg>
      <trkpt lat="43.78208" lon="2.34534">
        <ele>511.525</ele>
        <time>2016-06-10T12:26:00Z</time>
      </trkpt>
      <trkpt lat="43.78185" lon="2.3438">
        <ele>509.31</ele>
        <time>2016-06-10T12:26:20Z</time>
      </trkpt>
      <trkpt lat="43.78168" lon="2.34296">
        <ele>506.546</ele>
        <time>2016-06-10T12:26:40Z</time>
      </trkpt>
      <trkpt lat="43.78176" lon="2.34199">
        <ele>504.253</ele>
        <time>2016-06-10T12:27:00Z</time>
      </trkpt>
      <trkpt lat="43.78213" lon="2.34077">
        <ele>502.186</ele>
        <time>2016-06-10T12:27:20Z</time>
      </trkpt>
      <trkpt lat="43.78245" lon="2.34013">
        <ele>496.658</ele>
        <time>2016-06-10T12:27:40Z</time>
      </trkpt>
      <trkpt lat="43.78247" lon="2.33867">
        <ele>496.025</ele>
        <time>2016-06-10T12:28:00Z</time>
      </trkpt>
      <trkpt lat="43.78213" lon="2.33762">
        <ele>495.926</ele>
        <time>2016-06-10T12:28:20Z</time>
      </trkpt>
      <trkpt lat="43.78131" lon="2.33639">
        <ele>497.208</ele>
        <time>2016-06-10T12:28:40Z</time>
      </trkpt>
      <trkpt lat="43.78067" lon="2.3356">
        <ele>496.708</ele>
        <time>2016-06-10T12:29:00Z</time>
      </trkpt>
      <trkpt lat="43.78046" lon="2.33465">
        <ele>493.876</ele>
        <time>2016-06-10T12:29:20Z</time>
      </trkpt>
      <trkpt lat="43.78022" lon="2.33195">
        <ele>476.275</ele>
        <time>2016-06-10T12:29:40Z</time>
      </trkpt>
      <trkpt lat="43.7796" lon="2.33026">
        <ele>458.432</ele>
        <time>2016-06-10T12:30:00Z</time>
      </trkpt>
      <trkpt lat="43.7788" lon="2.33066">
        <ele>455.247</ele>
        <time>2016-06-10T12:30:20Z</time>
      </trkpt>
      <trkpt lat="43.77736" lon="2.33051">
        <ele>441.463</ele>
        <time>2016-06-10T12:30:40Z</time>
      </trkpt>
      <trkpt lat="43.77697" lon="2.33077">
        <ele>440.78</ele>
        <time>2016-06-10T12:31:00Z</time>
      </trkpt>
      <trkpt lat="43.77674" lon="2.33142">
        <ele>435.713</ele>
        <time>2016-06-10T12:31:20Z</time>
      </trkpt>
      <trkpt lat="43.7767" lon="2.33094">
        <ele>434.685</ele>
        <time>2016-06-10T12:31:40Z</time>
      </trkpt>
      <trkpt lat="43.77632" lon="2.33037">
        <ele>424.989</ele>
        <time>2016-06-10T12:32:00Z</time>
      </trkpt>
      <trkpt lat="43.77574" lon="2.32993">
        <ele>411.906</ele>
        <time>2016-06-10T12:32:20Z</time>
      </trkpt>
      <trkpt lat="43.77523" lon="2.32993">
        <ele>402.726</ele>
        <time>2016-06-10T12:32:40Z</time>
      </trkpt>
      <trkpt lat="43.77342" lon="2.33126">
        <ele>397.108</ele>
        <time>2016-06-10T12:33:00Z</time>
      </trkpt>
      <trkpt lat="43.77317" lon="2.3312">
        <ele>395.112</ele>
        <time>2016-06-10T12:33:20Z</time>
      </trkpt>
      <trkpt lat="43.77305" lon="2.33094">
        <ele>396.341</ele>
        <time>2016-06-10T12:33:40Z</time>
      </trkpt>
      <trkpt lat="43.77237" lon="2.33105">
        <ele>399.318</ele>
        <time>2016-06-10T12:34:00Z</time>
      </trkpt>
      <trkpt lat="43.77176" lon="2.33094">
        <ele>408.613</ele>
        <time>2016-06-10T12:34:20Z</time>
      </trkpt>
      <trkpt lat="43.77127" lon="2.33109">
        <ele>411.059</ele>
        <time>2016-06-10T12:34:40Z</time>
      </trkpt>
      <trkpt lat="43.77128" lon="2.33086">
        <ele>415.476</ele>
        <time>2016-06-10T12:35:00Z</time>
      </trkpt>
      <trkpt lat="43.7719" lon="2.33019">
        <ele>422.439</ele>
        <time>2016-06-10T12:35:20Z</time>
      </trkpt>
      <trkpt lat="43.77255" lon="2.32989">
        <ele>426.651</ele>
        <time>2016-06-10T12:35:40Z</time>
      </trkpt>
      <trkpt lat="43.77159" lon="2.32985">
        <ele>430.463</ele>
        <time>2016-06-10T12:36:00Z</time>
      </trkpt>
      <trkpt lat="43.76973" lon="2.33062">
        <ele>455.644</ele>
        <time>2016-06-10T12:36:20Z</time>
      </trkpt>
      <trkpt lat="43.76919" lon="2.33071">
        <ele>464.518</ele>
        <time>2016-06-10T12:36:40Z</time>
      </trkpt>
      <trkpt lat="43.76892" lon="2.33095">
        <ele>467.608</ele>
        <time>2016-06-10T12:37:00Z</time>
      </trkpt>
      <trkpt lat="43.76857" lon="2.33105">
        <ele>474.49</ele>
        <time>2016-06-10T12:37:20Z</time>
      </trkpt>
      <trkpt lat="43.76791" lon="2.3321">
        <ele>483.539</ele>
        <time>2016-06-10T12:37:40Z</time>
      </trkpt>
      <trkpt lat="43.76733" lon="2.33354">
        <ele>493.056</ele>
        <time>2016-06-10T12:38:00Z</time>
      </trkpt>
      <trkpt lat="43.76615" lon="2.33468">
        <ele>501.091</ele>
        <time>2016-06-10T12:38:20Z</time>
      </trkpt>
      <trkpt lat="43.76546" lon="2.33545">
        <ele>497.887</ele>
        <time>2016-06-10T12:38:40Z</time>
      </trkpt>
      <trkpt lat="43.76445" lon="2.33618">
        <ele>498.064</ele>
        <time>2016-06-10T12:39:00Z</time>
      </trkpt>
      <trkpt lat="43.7638" lon="2.33625">
        <ele>500.517</ele>
        <time>2016-06-10T12:39:20Z</time>
      </trkpt>
      <trkpt lat="43.7625" lon="2.33678">
        <ele>502.049</ele>
        <time>2016-06-10T12:39:40Z</time>
      </trkpt>
      <trkpt lat="43.76163" lon="2.33644">
        <ele>504.339</ele>
        <time>2016-06-10T12:40:00Z</time>
      </trkpt>
      <trkpt lat="43.76121" lon="2.33663">
        <ele>506.201</ele>
        <time>2016-06-10T12:40:20Z</time>
      </trkpt>
      <trkpt lat="43.76116" lon="2.33762">
        <ele>504.221</ele>
        <time>2016-06-10T12:41:00Z</time>
      </trkpt>
      <trkpt lat="43.76059" lon="2.33871">
        <ele>507.708</ele>
        <time>2016-06-10T12:41:20Z</time>
      </trkpt>
      <trkpt lat="43.76045" lon="2.33991">
        <ele>506.817</ele>
        <time>2016-06-10T12:41:40Z</time>
      </trkpt>
      <trkpt lat="43.76079" lon="2.34075">
        <ele>510.226</ele>
        <time>2016-06-10T12:42:00Z</time>
      </trkpt>
      <trkpt lat="43.76092" lon="2.34171">
        <ele>518.393</ele>
        <time>2016-06-10T12:42:20Z</time>
      </trkpt>
      <trkpt lat="43.76041" lon="2.3424">
        <ele>520.328</ele>
        <time>2016-06-10T12:43:20Z</time>
      </trkpt>
      <trkpt lat="43.76017" lon="2.34307">
        <ele>523.774</ele>
        <time>2016-06-10T12:43:40Z</time>
      </trkpt>
      <trkpt lat="43.75974" lon="2.34373">
        <ele>524.531</ele>
        <time>2016-06-10T12:44:00Z</time>
      </trkpt>
      <trkpt lat="43.75946" lon="2.34502">
        <ele>521.184</ele>
        <time>2016-06-10T12:44:20Z</time>
      </trkpt>
      <trkpt lat="43.7583" lon="2.34693">
        <ele>527.126</ele>
        <time>2016-06-10T12:44:40Z</time>
      </trkpt>
      <trkpt lat="43.75718" lon="2.34905">
        <ele>520.911</ele>
        <time>2016-06-10T12:45:20Z</time>
      </trkpt>
      <trkpt lat="43.75614" lon="2.34944">
        <ele>526.921</ele>
        <time>2016-06-10T12:45:40Z</time>
      </trkpt>
      <trkpt lat="43.75524" lon="2.35028">
        <ele>526.003</ele>
        <time>2016-06-10T12:46:00Z</time>
      </trkpt>
      <trkpt lat="43.75467" lon="2.35049">
        <ele>525.008</ele>
        <time>2016-06-10T12:46:20Z</time>
      </trkpt>
      <trkpt lat="43.75303" lon="2.35199">
        <ele>524.845</ele>
        <time>2016-06-10T12:46:40Z</time>
      </trkpt>
      <trkpt lat="43.7519" lon="2.35294">
        <ele>520.184</ele>
        <time>2016-06-10T12:47:00Z</time>
      </trkpt>
      <trkpt lat="43.75109" lon="2.353">
        <ele>510.161</ele>
        <time>2016-06-10T12:47:20Z</time>
      </trkpt>
      <trkpt lat="43.75019" lon="2.35244">
        <ele>507.816</ele>
        <time>2016-06-10T12:47:40Z</time>
      </trkpt>
      <trkpt lat="43.75007" lon="2.35206">
        <ele>510.352</ele>
        <time>2016-06-10T12:48:00Z</time>
      </trkpt>
      <trkpt lat="43.75038" lon="2.35152">
        <ele>503.069</ele>
        <time>2016-06-10T12:48:20Z</time>
      </trkpt>
      <trkpt lat="43.75033" lon="2.35118">
        <ele>503.492</ele>
        <time>2016-06-10T12:48:40Z</time>
      </trkpt>
      <trkpt lat="43.75008" lon="2.35066">
        <ele>509.454</ele>
        <time>2016-06-10T12:49:00Z</time>
      </trkpt>
      <trkpt lat="43.75015" lon="2.34957">
        <ele>505.563</ele>
        <time>2016-06-10T12:49:20Z</time>
      </trkpt>
      <trkpt lat="43.7496" lon="2.34847">
        <ele>502.144</ele>
        <time>2016-06-10T12:49:40Z</time>
      </trkpt>
      <trkpt lat="43.74903" lon="2.34828">
        <ele>489.918</ele>
        <time>2016-06-10T12:50:00Z</time>
      </trkpt>
      <trkpt lat="43.74844" lon="2.34757">
        <ele>472.208</ele>
        <time>2016-06-10T12:50:20Z</time>
      </trkpt>
      <trkpt lat="43.74782" lon="2.34714">
        <ele>445.32</ele>
        <time>2016-06-10T12:50:40Z</time>
      </trkpt>
      <trkpt lat="43.74763" lon="2.34635">
        <ele>435.079</ele>
        <time>2016-06-10T12:51:00Z</time>
      </trkpt>
      <trkpt lat="43.74763" lon="2.34483">
        <ele>441.826</ele>
        <time>2016-06-10T12:51:20Z</time>
      </trkpt>
      <trkpt lat="43.74711" lon="2.34395">
        <ele>418.041</ele>
        <time>2016-06-10T12:51:40Z</time>
      </trkpt>
      <trkpt lat="43.74658" lon="2.34341">
        <ele>401.757</ele>
        <time>2016-06-10T12:52:00Z</time>
      </trkpt>
      <trkpt lat="43.74643" lon="2.34277">
        <ele>388.744</ele>
        <time>2016-06-10T12:52:20Z</time>
      </trkpt>
      <trkpt lat="43.74618" lon="2.34311">
        <ele>384.837</ele>
        <time>2016-06-10T12:52:40Z</time>
      </trkpt>
      <trkpt lat="43.7456" lon="2.34328">
        <ele>368.919</ele>
        <time>2016-06-10T12:53:00Z</time>
      </trkpt>
      <trkpt lat="43.74539" lon="2.34345">
        <ele>366.763</ele>
        <time>2016-06-10T12:53:20Z</time>
      </trkpt>
      <trkpt lat="43.7446" lon="2.34332">
        <ele>361.944</ele>
        <time>2016-06-10T12:53:40Z</time>
      </trkpt>
      <trkpt lat="43.74422" lon="2.34264">
        <ele>360.318</ele>
        <time>2016-06-10T12:54:00Z</time>
      </trkpt>
      <trkpt lat="43.74376" lon="2.34225">
        <ele>361.608</ele>
        <time>2016-06-10T12:54:20Z</time>
      </trkpt>
      <trkpt lat="43.74381" lon="2.34098">
        <ele>362.35</ele>
        <time>2016-06-10T12:54:40Z</time>
      </trkpt>
      <trkpt lat="43.74398" lon="2.34096">
        <ele>360.819</ele>
        <time>2016-06-10T12:55:00Z</time>
      </trkpt>
      <trkpt lat="43.74444" lon="2.3406">
        <ele>358.856</ele>
        <time>2016-06-10T12:55:20Z</time>
      </trkpt>
      <trkpt lat="43.74449" lon="2.3401">
        <ele>362.221</ele>
        <time>2016-06-10T12:55:40Z</time>
      </trkpt>
      <trkpt lat="43.74503" lon="2.33961">
        <ele>356.857</ele>
        <time>2016-06-10T12:56:00Z</time>
      </trkpt>
      <trkpt lat="43.74528" lon="2.33781">
        <ele>358.824</ele>
        <time>2016-06-10T12:56:20Z</time>
      </trkpt>
      <trkpt lat="43.74503" lon="2.33751">
        <ele>368.037</ele>
        <time>2016-06-10T12:56:40Z</time>
      </trkpt>
      <trkpt lat="43.74456" lon="2.33598">
        <ele>379.629</ele>
        <time>2016-06-10T12:57:00Z</time>
      </trkpt>
      <trkpt lat="43.74399" lon="2.33592">
        <ele>391.212</ele>
        <time>2016-06-10T12:57:20Z</time>
      </trkpt>
      <trkpt lat="43.74337" lon="2.33526">
        <ele>401.632</ele>
        <time>2016-06-10T12:57:40Z</time>
      </trkpt>
      <trkpt lat="43.7432" lon="2.33526">
        <ele>407.605</ele>
        <time>2016-06-10T12:58:00Z</time>
      </trkpt>
      <trkpt lat="43.74305" lon="2.33485">
        <ele>409.708</ele>
        <time>2016-06-10T12:58:20Z</time>
      </trkpt>
      <trkpt lat="43.74252" lon="2.33435">
        <ele>413.475</ele>
        <time>2016-06-10T12:58:40Z</time>
      </trkpt>
      <trkpt lat="43.74227" lon="2.33358">
        <ele>419.054</ele>
        <time>2016-06-10T12:59:00Z</time>
      </trkpt>
      <trkpt lat="43.74238" lon="2.33225">
        <ele>423.421</ele>
        <time>2016-06-10T12:59:20Z</time>
      </trkpt>
      <trkpt lat="43.7428" lon="2.33165">
        <ele>423.936</ele>
        <time>2016-06-10T13:00:00Z</time>
      </trkpt>
      <trkpt lat="43.7428" lon="2.33103">
        <ele>432.162</ele>
        <time>2016-06-10T13:00:20Z</time>
      </trkpt>
      <trkpt lat="43.74213" lon="2.32908">
        <ele>447.669</ele>
        <time>2016-06-10T13:00:40Z</time>
      </trkpt>
      <trkpt lat="43.74092" lon="2.32847">
        <ele>458.322</ele>
        <time>2016-06-10T13:01:00Z</time>
      </trkpt>
      <trkpt lat="43.7405" lon="2.32674">
        <ele>469.464</ele>
        <time>2016-06-10T13:01:20Z</time>
      </trkpt>
      <trkpt lat="43.73974" lon="2.32545">
        <ele>498.279</ele>
        <time>2016-06-10T13:02:00Z</time>
      </trkpt>
      <trkpt lat="43.73995" lon="2.32416">
        <ele>501.305</ele>
        <time>2016-06-10T13:02:20Z</time>
      </trkpt>
      <trkpt lat="43.74005" lon="2.32257">
        <ele>521.125</ele>
        <time>2016-06-10T13:02:40Z</time>
      </trkpt>
      <trkpt lat="43.74024" lon="2.32202">
        <ele>525.408</ele>
        <time>2016-06-10T13:03:00Z</time>
      </trkpt>
      <trkpt lat="43.73891" lon="2.32317">
        <ele>534.291</ele>
        <time>2016-06-10T13:03:20Z</time>
      </trkpt>
      <trkpt lat="43.73834" lon="2.32386">
        <ele>548.67</ele>
        <time>2016-06-10T13:03:40Z</time>
      </trkpt>
      <trkpt lat="43.7381" lon="2.32556">
        <ele>564.467</ele>
        <time>2016-06-10T13:04:00Z</time>
      </trkpt>
      <trkpt lat="43.73771" lon="2.32729">
        <ele>574.562</ele>
        <time>2016-06-10T13:04:20Z</time>
      </trkpt>
      <trkpt lat="43.73787" lon="2.32935">
        <ele>580.048</ele>
        <time>2016-06-10T13:04:40Z</time>
      </trkpt>
      <trkpt lat="43.7377" lon="2.3335">
        <ele>576.035</ele>
        <time>2016-06-10T13:05:00Z</time>
      </trkpt>
      <trkpt lat="43.73776" lon="2.33416">
        <ele>575.798</ele>
        <time>2016-06-10T13:05:20Z</time>
      </trkpt>
      <trkpt lat="43.73752" lon="2.335">
        <ele>572.22</ele>
        <time>2016-06-10T13:05:40Z</time>
      </trkpt>
      <trkpt lat="43.73573" lon="2.33733">
        <ele>563.933</ele>
        <time>2016-06-10T13:06:00Z</time>
      </trkpt>
      <trkpt lat="43.73433" lon="2.33822">
        <ele>556.223</ele>
        <time>2016-06-10T13:06:20Z</time>
      </trkpt>
      <trkpt lat="43.73274" lon="2.33907">
        <ele>545.715</ele>
        <time>2016-06-10T13:06:40Z</time>
      </trkpt>
      <trkpt lat="43.73173" lon="2.33978">
        <ele>542.008</ele>
        <time>2016-06-10T13:07:00Z</time>
      </trkpt>
      <trkpt lat="43.73114" lon="2.34056">
        <ele>541.127</ele>
        <time>2016-06-10T13:07:20Z</time>
      </trkpt>
      <trkpt lat="43.73046" lon="2.34274">
        <ele>540.086</ele>
        <time>2016-06-10T13:07:40Z</time>
      </trkpt>
      <trkpt lat="43.73004" lon="2.34307">
        <ele>540.023</ele>
        <time>2016-06-10T13:08:00Z</time>
      </trkpt>
      <trkpt lat="43.7296" lon="2.34641">
        <ele>540.498</ele>
        <time>2016-06-10T13:08:20Z</time>
      </trkpt>
      <trkpt lat="43.72881" lon="2.34841">
        <ele>548.524</ele>
        <time>2016-06-10T13:08:40Z</time>
      </trkpt>
      <trkpt lat="43.72768" lon="2.35066">
        <ele>550.031</ele>
        <time>2016-06-10T13:09:00Z</time>
      </trkpt>
      <trkpt lat="43.72636" lon="2.35279">
        <ele>554.384</ele>
        <time>2016-06-10T13:09:20Z</time>
      </trkpt>
      <trkpt lat="43.725" lon="2.35564">
        <ele>561.346</ele>
        <time>2016-06-10T13:09:40Z</time>
      </trkpt>
      <trkpt lat="43.72429" lon="2.35667">
        <ele>565.685</ele>
        <time>2016-06-10T13:10:00Z</time>
      </trkpt>
      <trkpt lat="43.72367" lon="2.35716">
        <ele>566.789</ele>
        <time>2016-06-10T13:10:20Z</time>
      </trkpt>
      <trkpt lat="43.7234" lon="2.35761">
        <ele>566.317</ele>
        <time>2016-06-10T13:10:40Z</time>
      </trkpt>
      <trkpt lat="43.72314" lon="2.35781">
        <ele>568.908</ele>
        <time>2016-06-10T13:11:00Z</time>
      </trkpt>
      <trkpt lat="43.72273" lon="2.35888">
        <ele>567.522</ele>
        <time>2016-06-10T13:11:20Z</time>
      </trkpt>
      <trkpt lat="43.72235" lon="2.35907">
        <ele>571.631</ele>
        <time>2016-06-10T13:11:40Z</time>
      </trkpt>
      <trkpt lat="43.72227" lon="2.35972">
        <ele>575.058</ele>
        <time>2016-06-10T13:12:00Z</time>
      </trkpt>
      <trkpt lat="43.72187" lon="2.36088">
        <ele>575.113</ele>
        <time>2016-06-10T13:12:20Z</time>
      </trkpt>
      <trkpt lat="43.72143" lon="2.36066">
        <ele>578.939</ele>
        <time>2016-06-10T13:12:40Z</time>
      </trkpt>
      <trkpt lat="43.72128" lon="2.36088">
        <ele>574.676</ele>
        <time>2016-06-10T13:13:00Z</time>
      </trkpt>
      <trkpt lat="43.72103" lon="2.36094">
        <ele>576.019</ele>
        <time>2016-06-10T13:13:20Z</time>
      </trkpt>
      <trkpt lat="43.72104" lon="2.3615">
        <ele>575.091</ele>
        <time>2016-06-10T13:13:40Z</time>
      </trkpt>
      <trkpt lat="43.72061" lon="2.36221">
        <ele>583.569</ele>
        <time>2016-06-10T13:14:00Z</time>
      </trkpt>
      <trkpt lat="43.72007" lon="2.36225">
        <ele>589.004</ele>
        <time>2016-06-10T13:14:20Z</time>
      </trkpt>
      <trkpt lat="43.71963" lon="2.36257">
        <ele>588.824</ele>
        <time>2016-06-10T13:14:40Z</time>
      </trkpt>
      <trkpt lat="43.7183" lon="2.36444">
        <ele>595.308</ele>
        <time>2016-06-10T13:15:00Z</time>
      </trkpt>
      <trkpt lat="43.71895" lon="2.36538">
        <ele>592.09</ele>
        <time>2016-06-10T13:15:20Z</time>
      </trkpt>
      <trkpt lat="43.71968" lon="2.36763">
        <ele>597.579</ele>
        <time>2016-06-10T13:15:40Z</time>
      </trkpt>
      <trkpt lat="43.71977" lon="2.36858">
        <ele>600.986</ele>
        <time>2016-06-10T13:16:00Z</time>
      </trkpt>
      <trkpt lat="43.71971" lon="2.37006">
        <ele>609.231</ele>
        <time>2016-06-10T13:16:20Z</time>
      </trkpt>
      <trkpt lat="43.71943" lon="2.37118">
        <ele>610.017</ele>
        <time>2016-06-10T13:17:00Z</time>
      </trkpt>
      <trkpt lat="43.71928" lon="2.37193">
        <ele>610.284</ele>
        <time>2016-06-10T13:17:20Z</time>
      </trkpt>
      <trkpt lat="43.7188" lon="2.37197">
        <ele>613.587</ele>
        <time>2016-06-10T13:17:40Z</time>
      </trkpt>
      <trkpt lat="43.71791" lon="2.37332">
        <ele>625.949</ele>
        <time>2016-06-10T13:18:00Z</time>
      </trkpt>
      <trkpt lat="43.71666" lon="2.37442">
        <ele>634.813</ele>
        <time>2016-06-10T13:18:20Z</time>
      </trkpt>
      <trkpt lat="43.71576" lon="2.37493">
        <ele>639.843</ele>
        <time>2016-06-10T13:18:40Z</time>
      </trkpt>
      <trkpt lat="43.71509" lon="2.37545">
        <ele>634.807</ele>
        <time>2016-06-10T13:19:20Z</time>
      </trkpt>
      <trkpt lat="43.71416" lon="2.37577">
        <ele>626.708</ele>
        <time>2016-06-10T13:19:40Z</time>
      </trkpt>
      <trkpt lat="43.71289" lon="2.3768">
        <ele>620.025</ele>
        <time>2016-06-10T13:20:00Z</time>
      </trkpt>
      <trkpt lat="43.71134" lon="2.37738">
        <ele>620.024</ele>
        <time>2016-06-10T13:20:20Z</time>
      </trkpt>
      <trkpt lat="43.71076" lon="2.37785">
        <ele>620.391</ele>
        <time>2016-06-10T13:20:40Z</time>
      </trkpt>
      <trkpt lat="43.70974" lon="2.37911">
        <ele>625.356</ele>
        <time>2016-06-10T13:21:00Z</time>
      </trkpt>
      <trkpt lat="43.70921" lon="2.37911">
        <ele>628.932</ele>
        <time>2016-06-10T13:21:20Z</time>
      </trkpt>
      <trkpt lat="43.70878" lon="2.37984">
        <ele>625.429</ele>
        <time>2016-06-10T13:21:40Z</time>
      </trkpt>
      <trkpt lat="43.70833" lon="2.38034">
        <ele>626.962</ele>
        <time>2016-06-10T13:22:00Z</time>
      </trkpt>
      <trkpt lat="43.70684" lon="2.38128">
        <ele>611.384</ele>
        <time>2016-06-10T13:22:20Z</time>
      </trkpt>
      <trkpt lat="43.70598" lon="2.3816">
        <ele>603.635</ele>
        <time>2016-06-10T13:22:40Z</time>
      </trkpt>
      <trkpt lat="43.70439" lon="2.38147">
        <ele>595.386</ele>
        <time>2016-06-10T13:23:00Z</time>
      </trkpt>
      <trkpt lat="43.70317" lon="2.38164">
        <ele>593.514</ele>
        <time>2016-06-10T13:23:20Z</time>
      </trkpt>
      <trkpt lat="43.70212" lon="2.38132">
        <ele>588.408</ele>
        <time>2016-06-10T13:23:40Z</time>
      </trkpt>
      <trkpt lat="43.70099" lon="2.38145">
        <ele>590.417</ele>
        <time>2016-06-10T13:24:00Z</time>
      </trkpt>
      <trkpt lat="43.69989" lon="2.3819">
        <ele>594.266</ele>
        <time>2016-06-10T13:24:20Z</time>
      </trkpt>
      <trkpt lat="43.69846" lon="2.38182">
        <ele>600.033</ele>
        <time>2016-06-10T13:24:40Z</time>
      </trkpt>
      <trkpt lat="43.69724" lon="2.38212">
        <ele>600.028</ele>
        <time>2016-06-10T13:25:00Z</time>
      </trkpt>
      <trkpt lat="43.69669" lon="2.38247">
        <ele>600.014</ele>
        <time>2016-06-10T13:25:20Z</time>
      </trkpt>
      <trkpt lat="43.69569" lon="2.38379">
        <ele>594.871</ele>
        <time>2016-06-10T13:25:40Z</time>
      </trkpt>
      <trkpt lat="43.69579" lon="2.38424">
        <ele>594.924</ele>
        <time>2016-06-10T13:26:00Z</time>
      </trkpt>
      <trkpt lat="43.69548" lon="2.38534">
        <ele>581.636</ele>
        <time>2016-06-10T13:26:20Z</time>
      </trkpt>
      <trkpt lat="43.695" lon="2.38592">
        <ele>575.322</ele>
        <time>2016-06-10T13:26:40Z</time>
      </trkpt>
      <trkpt lat="43.69472" lon="2.38658">
        <ele>570.362</ele>
        <time>2016-06-10T13:27:40Z</time>
      </trkpt>
      <trkpt lat="43.69249" lon="2.38907">
        <ele>540.308</ele>
        <time>2016-06-10T13:28:00Z</time>
      </trkpt>
      <trkpt lat="43.69266" lon="2.38924">
        <ele>540.008</ele>
        <time>2016-06-10T13:28:20Z</time>
      </trkpt>
      <trkpt lat="43.69258" lon="2.3895">
        <ele>536.316</ele>
        <time>2016-06-10T13:28:40Z</time>
      </trkpt>
      <trkpt lat="43.69221" lon="2.38954">
        <ele>537.645</ele>
        <time>2016-06-10T13:29:00Z</time>
      </trkpt>
      <trkpt lat="43.69191" lon="2.39059">
        <ele>523.012</ele>
        <time>2016-06-10T13:29:20Z</time>
      </trkpt>
      <trkpt lat="43.6919" lon="2.39177">
        <ele>511.827</ele>
        <time>2016-06-10T13:29:40Z</time>
      </trkpt>
      <trkpt lat="43.69218" lon="2.3922">
        <ele>494.623</ele>
        <time>2016-06-10T13:30:00Z</time>
      </trkpt>
      <trkpt lat="43.69218" lon="2.39321">
        <ele>483.53</ele>
        <time>2016-06-10T13:30:20Z</time>
      </trkpt>
      <trkpt lat="43.69184" lon="2.39527">
        <ele>455.593</ele>
        <time>2016-06-10T13:30:40Z</time>
      </trkpt>
      <trkpt lat="43.69123" lon="2.39613">
        <ele>437.675</ele>
        <time>2016-06-10T13:31:00Z</time>
      </trkpt>
      <trkpt lat="43.69083" lon="2.39598">
        <ele>440.545</ele>
        <time>2016-06-10T13:31:20Z</time>
      </trkpt>
      <trkpt lat="43.69066" lon="2.39639">
        <ele>432.247</ele>
        <time>2016-06-10T13:31:40Z</time>
      </trkpt>
      <trkpt lat="43.69046" lon="2.39643">
        <ele>437.811</ele>
        <time>2016-06-10T13:32:00Z</time>
      </trkpt>
      <trkpt lat="43.68987" lon="2.39744">
        <ele>427.308</ele>
        <time>2016-06-10T13:32:20Z</time>
      </trkpt>
      <trkpt lat="43.68904" lon="2.39768">
        <ele>423.698</ele>
        <time>2016-06-10T13:32:40Z</time>
      </trkpt>
      <trkpt lat="43.68895" lon="2.39804">
        <ele>415.777</ele>
        <time>2016-06-10T13:34:20Z</time>
      </trkpt>
      <trkpt lat="43.68918" lon="2.3986">
        <ele>401.474</ele>
        <time>2016-06-10T13:34:40Z</time>
      </trkpt>
      <trkpt lat="43.68914" lon="2.40053">
        <ele>389.559</ele>
        <time>2016-06-10T13:35:00Z</time>
      </trkpt>
      <trkpt lat="43.68951" lon="2.4007">
        <ele>380.445</ele>
        <time>2016-06-10T13:35:20Z</time>
      </trkpt>
      <trkpt lat="43.68954" lon="2.4013">
        <ele>367.192</ele>
        <time>2016-06-10T13:35:40Z</time>
      </trkpt>
      <trkpt lat="43.68993" lon="2.40152">
        <ele>354.735</ele>
        <time>2016-06-10T13:36:00Z</time>
      </trkpt>
      <trkpt lat="43.69033" lon="2.40016">
        <ele>349.427</ele>
        <time>2016-06-10T13:36:20Z</time>
      </trkpt>
      <trkpt lat="43.69053" lon="2.39995">
        <ele>342.545</ele>
        <time>2016-06-10T13:36:40Z</time>
      </trkpt>
      <trkpt lat="43.69058" lon="2.40059">
        <ele>335.247</ele>
        <time>2016-06-10T13:37:00Z</time>
      </trkpt>
      <trkpt lat="43.69052" lon="2.40081">
        <ele>336.211</ele>
        <time>2016-06-10T13:37:20Z</time>
      </trkpt>
      <trkpt lat="43.69083" lon="2.40096">
        <ele>316.008</ele>
        <time>2016-06-10T13:37:40Z</time>
      </trkpt>
      <trkpt lat="43.69061" lon="2.40173">
        <ele>315.598</ele>
        <time>2016-06-10T13:38:00Z</time>
      </trkpt>
      <trkpt lat="43.69018" lon="2.40237">
        <ele>320.577</ele>
        <time>2016-06-10T13:38:20Z</time>
      </trkpt>
      <trkpt lat="43.69018" lon="2.4031">
        <ele>304.764</ele>
        <time>2016-06-10T13:38:40Z</time>
      </trkpt>
      <trkpt lat="43.68966" lon="2.40355">
        <ele>306.059</ele>
        <time>2016-06-10T13:39:00Z</time>
      </trkpt>
      <trkpt lat="43.68923" lon="2.40351">
        <ele>309.445</ele>
        <time>2016-06-10T13:39:20Z</time>
      </trkpt>
      <trkpt lat="43.68858" lon="2.40287">
        <ele>303.542</ele>
        <time>2016-06-10T13:39:40Z</time>
      </trkpt>
      <trkpt lat="43.68831" lon="2.40304">
        <ele>300.755</ele>
        <time>2016-06-10T13:40:00Z</time>
      </trkpt>
      <trkpt lat="43.68825" lon="2.40443">
        <ele>308.697</ele>
        <time>2016-06-10T13:40:20Z</time>
      </trkpt>
      <trkpt lat="43.68802" lon="2.40489">
        <ele>305.579</ele>
        <time>2016-06-10T13:40:40Z</time>
      </trkpt>
      <trkpt lat="43.68738" lon="2.40493">
        <ele>306.005</ele>
        <time>2016-06-10T13:41:00Z</time>
      </trkpt>
      <trkpt lat="43.68709" lon="2.40467">
        <ele>307.025</ele>
        <time>2016-06-10T13:41:20Z</time>
      </trkpt>
      <trkpt lat="43.687" lon="2.40355">
        <ele>300.108</ele>
        <time>2016-06-10T13:41:40Z</time>
      </trkpt>
      <trkpt lat="43.68661" lon="2.4028">
        <ele>306.741</ele>
        <time>2016-06-10T13:42:00Z</time>
      </trkpt>
      <trkpt lat="43.68653" lon="2.40207">
        <ele>300.32</ele>
        <time>2016-06-10T13:42:20Z</time>
      </trkpt>
      <trkpt lat="43.68612" lon="2.40197">
        <ele>305.747</ele>
        <time>2016-06-10T13:42:40Z</time>
      </trkpt>
      <trkpt lat="43.68575" lon="2.40164">
        <ele>306.852</ele>
        <time>2016-06-10T13:43:00Z</time>
      </trkpt>
      <trkpt lat="43.68544" lon="2.40124">
        <ele>303.628</ele>
        <time>2016-06-10T13:43:20Z</time>
      </trkpt>
      <trkpt lat="43.68484" lon="2.40115">
        <ele>314.995</ele>
        <time>2016-06-10T13:43:40Z</time>
      </trkpt>
      <trkpt lat="43.68456" lon="2.40079">
        <ele>315.268</ele>
        <time>2016-06-10T13:44:00Z</time>
      </trkpt>
      <trkpt lat="43.68448" lon="2.39997">
        <ele>304.56</ele>
        <time>2016-06-10T13:44:20Z</time>
      </trkpt>
      <trkpt lat="43.68414" lon="2.39965">
        <ele>305.988</ele>
        <time>2016-06-10T13:44:40Z</time>
      </trkpt>
      <trkpt lat="43.68324" lon="2.39969">
        <ele>316.324</ele>
        <time>2016-06-10T13:45:00Z</time>
      </trkpt>
      <trkpt lat="43.68273" lon="2.39941">
        <ele>306.026</ele>
        <time>2016-06-10T13:45:20Z</time>
      </trkpt>
      <trkpt lat="43.68211" lon="2.39984">
        <ele>309.308</ele>
        <time>2016-06-10T13:45:40Z</time>
      </trkpt>
      <trkpt lat="43.68243" lon="2.40062">
        <ele>328.722</ele>
        <time>2016-06-10T13:46:00Z</time>
      </trkpt>
      <trkpt lat="43.68245" lon="2.40162">
        <ele>315.921</ele>
        <time>2016-06-10T13:46:20Z</time>
      </trkpt>
      <trkpt lat="43.68212" lon="2.40268">
        <ele>316.678</ele>
        <time>2016-06-10T13:46:40Z</time>
      </trkpt>
      <trkpt lat="43.68164" lon="2.40306">
        <ele>310.133</ele>
        <time>2016-06-10T13:47:00Z</time>
      </trkpt>
      <trkpt lat="43.68093" lon="2.403">
        <ele>302.699</ele>
        <time>2016-06-10T13:47:20Z</time>
      </trkpt>
      <trkpt lat="43.6798" lon="2.40428">
        <ele>320.246</ele>
        <time>2016-06-10T13:47:40Z</time>
      </trkpt>
      <trkpt lat="43.67992" lon="2.40389">
        <ele>305.519</ele>
        <time>2016-06-10T13:48:00Z</time>
      </trkpt>
      <trkpt lat="43.68074" lon="2.40283">
        <ele>297.231</ele>
        <time>2016-06-10T13:48:20Z</time>
      </trkpt>
      <trkpt lat="43.68104" lon="2.40107">
        <ele>283.685</ele>
        <time>2016-06-10T13:48:40Z</time>
      </trkpt>
      <trkpt lat="43.68094" lon="2.40027">
        <ele>284.889</ele>
        <time>2016-06-10T13:49:00Z</time>
      </trkpt>
      <trkpt lat="43.68029" lon="2.39894">
        <ele>291.217</ele>
        <time>2016-06-10T13:49:20Z</time>
      </trkpt>
      <trkpt lat="43.67967" lon="2.39789">
        <ele>282.108</ele>
        <time>2016-06-10T13:49:40Z</time>
      </trkpt>
      <trkpt lat="43.67846" lon="2.39669">
        <ele>284.472</ele>
        <time>2016-06-10T13:50:00Z</time>
      </trkpt>
      <trkpt lat="43.67821" lon="2.39626">
        <ele>284.051</ele>
        <time>2016-06-10T13:50:20Z</time>
      </trkpt>
      <trkpt lat="43.67813" lon="2.39529">
        <ele>284.618</ele>
        <time>2016-06-10T13:50:40Z</time>
      </trkpt>
      <trkpt lat="43.67826" lon="2.39319">
        <ele>279.793</ele>
        <time>2016-06-10T13:51:00Z</time>
      </trkpt>
      <trkpt lat="43.67858" lon="2.39188">
        <ele>271.219</ele>
        <time>2016-06-10T13:51:20Z</time>
      </trkpt>
      <trkpt lat="43.67854" lon="2.39098">
        <ele>272.476</ele>
        <time>2016-06-10T13:51:40Z</time>
      </trkpt>
      <trkpt lat="43.67762" lon="2.38748">
        <ele>271.499</ele>
        <time>2016-06-10T13:52:00Z</time>
      </trkpt>
      <trkpt lat="43.67775" lon="2.38665">
        <ele>275.151</ele>
        <time>2016-06-10T13:52:20Z</time>
      </trkpt>
      <trkpt lat="43.67806" lon="2.38592">
        <ele>275.437</ele>
        <time>2016-06-10T13:52:40Z</time>
      </trkpt>
      <trkpt lat="43.67891" lon="2.38521">
        <ele>271.149</ele>
        <time>2016-06-10T13:53:00Z</time>
      </trkpt>
      <trkpt lat="43.68127" lon="2.38495">
        <ele>265.513</ele>
        <time>2016-06-10T13:53:20Z</time>
      </trkpt>
      <trkpt lat="43.68213" lon="2.38439">
        <ele>269.108</ele>
        <time>2016-06-10T13:53:40Z</time>
      </trkpt>
      <trkpt lat="43.68278" lon="2.38327">
        <ele>273.087</ele>
        <time>2016-06-10T13:54:00Z</time>
      </trkpt>
      <trkpt lat="43.68273" lon="2.38278">
        <ele>270.716</ele>
        <time>2016-06-10T13:54:20Z</time>
      </trkpt>
      <trkpt lat="43.68206" lon="2.38195">
        <ele>262.683</ele>
        <time>2016-06-10T13:54:40Z</time>
      </trkpt>
      <trkpt lat="43.6818" lon="2.38173">
        <ele>262.448</ele>
        <time>2016-06-10T13:55:00Z</time>
      </trkpt>
      <trkpt lat="43.68097" lon="2.38102">
        <ele>262.824</ele>
        <time>2016-06-10T13:55:20Z</time>
      </trkpt>
      <trkpt lat="43.68014" lon="2.37995">
        <ele>265.511</ele>
        <time>2016-06-10T13:55:40Z</time>
      </trkpt>
      <trkpt lat="43.6793" lon="2.37793">
        <ele>254.734</ele>
        <time>2016-06-10T13:56:00Z</time>
      </trkpt>
      <trkpt lat="43.67893" lon="2.3777">
        <ele>259.886</ele>
        <time>2016-06-10T13:56:20Z</time>
      </trkpt>
      <trkpt lat="43.67826" lon="2.37751">
        <ele>269.863</ele>
        <time>2016-06-10T13:56:40Z</time>
      </trkpt>
      <trkpt lat="43.67751" lon="2.37718">
        <ele>276.644</ele>
        <time>2016-06-10T13:57:00Z</time>
      </trkpt>
      <trkpt lat="43.67691" lon="2.37671">
        <ele>282.218</ele>
        <time>2016-06-10T13:57:20Z</time>
      </trkpt>
      <trkpt lat="43.67624" lon="2.37682">
        <ele>296.008</ele>
        <time>2016-06-10T13:57:40Z</time>
      </trkpt>
      <trkpt lat="43.67601" lon="2.37615">
        <ele>292.48</ele>
        <time>2016-06-10T13:58:00Z</time>
      </trkpt>
      <trkpt lat="43.67536" lon="2.37523">
        <ele>306.649</ele>
        <time>2016-06-10T13:58:20Z</time>
      </trkpt>
      <trkpt lat="43.67486" lon="2.37377">
        <ele>311.916</ele>
        <time>2016-06-10T13:58:40Z</time>
      </trkpt>
      <trkpt lat="43.67457" lon="2.37405">
        <ele>320.771</ele>
        <time>2016-06-10T13:59:00Z</time>
      </trkpt>
      <trkpt lat="43.67492" lon="2.37469">
        <ele>322.147</ele>
        <time>2016-06-10T13:59:20Z</time>
      </trkpt>
      <trkpt lat="43.67499" lon="2.37601">
        <ele>338.834</ele>
        <time>2016-06-10T13:59:40Z</time>
      </trkpt>
      <trkpt lat="43.67542" lon="2.37808">
        <ele>363.337</ele>
        <time>2016-06-10T14:00:00Z</time>
      </trkpt>
      <trkpt lat="43.67562" lon="2.37871">
        <ele>380.199</ele>
        <time>2016-06-10T14:00:20Z</time>
      </trkpt>
      <trkpt lat="43.67619" lon="2.37871">
        <ele>378.874</ele>
        <time>2016-06-10T14:00:40Z</time>
      </trkpt>
      <trkpt lat="43.67668" lon="2.37918">
        <ele>391.356</ele>
        <time>2016-06-10T14:01:00Z</time>
      </trkpt>
      <trkpt lat="43.67723" lon="2.37954">
        <ele>392.821</ele>
        <time>2016-06-10T14:01:20Z</time>
      </trkpt>
      <trkpt lat="43.67744" lon="2.38032">
        <ele>408.508</ele>
        <time>2016-06-10T14:01:40Z</time>
      </trkpt>
      <trkpt lat="43.67776" lon="2.38085">
        <ele>409.321</ele>
        <time>2016-06-10T14:02:00Z</time>
      </trkpt>
      <trkpt lat="43.67796" lon="2.38169">
        <ele>419.18</ele>
        <time>2016-06-10T14:02:20Z</time>
      </trkpt>
      <trkpt lat="43.67781" lon="2.38216">
        <ele>420.757</ele>
        <time>2016-06-10T14:02:40Z</time>
      </trkpt>
      <trkpt lat="43.67646" lon="2.38214">
        <ele>448.082</ele>
        <time>2016-06-10T14:03:00Z</time>
      </trkpt>
      <trkpt lat="43.67606" lon="2.38218">
        <ele>458.168</ele>
        <time>2016-06-10T14:03:20Z</time>
      </trkpt>
      <trkpt lat="43.67534" lon="2.38266">
        <ele>475.765</ele>
        <time>2016-06-10T14:04:40Z</time>
      </trkpt>
      <trkpt lat="43.67568" lon="2.38197">
        <ele>470.678</ele>
        <time>2016-06-10T14:05:00Z</time>
      </trkpt>
      <trkpt lat="43.67533" lon="2.38156">
        <ele>476.96</ele>
        <time>2016-06-10T14:05:20Z</time>
      </trkpt>
      <trkpt lat="43.67418" lon="2.38341">
        <ele>515.812</ele>
        <time>2016-06-10T14:05:40Z</time>
      </trkpt>
      <trkpt lat="43.6734" lon="2.38353">
        <ele>532.232</ele>
        <time>2016-06-10T14:06:00Z</time>
      </trkpt>
      <trkpt lat="43.67236" lon="2.38446">
        <ele>539.405</ele>
        <time>2016-06-10T14:06:20Z</time>
      </trkpt>
      <trkpt lat="43.67191" lon="2.38544">
        <ele>546.608</ele>
        <time>2016-06-10T14:06:40Z</time>
      </trkpt>
      <trkpt lat="43.67165" lon="2.38643">
        <ele>560.445</ele>
        <time>2016-06-10T14:07:00Z</time>
      </trkpt>
      <trkpt lat="43.67104" lon="2.38755">
        <ele>582.124</ele>
        <time>2016-06-10T14:07:20Z</time>
      </trkpt>
      <trkpt lat="43.67072" lon="2.38735">
        <ele>592.081</ele>
        <time>2016-06-10T14:07:40Z</time>
      </trkpt>
      <trkpt lat="43.67034" lon="2.3878">
        <ele>605.456</ele>
        <time>2016-06-10T14:08:00Z</time>
      </trkpt>
      <trkpt lat="43.67034" lon="2.38823">
        <ele>604.442</ele>
        <time>2016-06-10T14:08:20Z</time>
      </trkpt>
      <trkpt lat="43.66988" lon="2.38813">
        <ele>623.199</ele>
        <time>2016-06-10T14:08:40Z</time>
      </trkpt>
      <trkpt lat="43.66963" lon="2.38828">
        <ele>629.512</ele>
        <time>2016-06-10T14:09:00Z</time>
      </trkpt>
      <trkpt lat="43.66906" lon="2.3895">
        <ele>652.474</ele>
        <time>2016-06-10T14:09:20Z</time>
      </trkpt>
      <trkpt lat="43.66859" lon="2.38929">
        <ele>657.065</ele>
        <time>2016-06-10T14:09:40Z</time>
      </trkpt>
      <trkpt lat="43.6682" lon="2.38956">
        <ele>659.468</ele>
        <time>2016-06-10T14:10:00Z</time>
      </trkpt>
      <trkpt lat="43.66788" lon="2.39051">
        <ele>657.314</ele>
        <time>2016-06-10T14:10:20Z</time>
      </trkpt>
      <trkpt lat="43.66786" lon="2.39126">
        <ele>656.808</ele>
        <time>2016-06-10T14:10:40Z</time>
      </trkpt>
      <trkpt lat="43.66747" lon="2.3919">
        <ele>651.72</ele>
        <time>2016-06-10T14:11:00Z</time>
      </trkpt>
      <trkpt lat="43.66735" lon="2.39244">
        <ele>652.369</ele>
        <time>2016-06-10T14:11:20Z</time>
      </trkpt>
      <trkpt lat="43.66677" lon="2.39259">
        <ele>657.636</ele>
        <time>2016-06-10T14:11:40Z</time>
      </trkpt>
      <trkpt lat="43.66646" lon="2.39338">
        <ele>658.131</ele>
        <time>2016-06-10T14:12:00Z</time>
      </trkpt>
      <trkpt lat="43.66592" lon="2.39347">
        <ele>651.477</ele>
        <time>2016-06-10T14:12:20Z</time>
      </trkpt>
      <trkpt lat="43.66575" lon="2.3931">
        <ele>650.184</ele>
        <time>2016-06-10T14:12:40Z</time>
      </trkpt>
      <trkpt lat="43.66544" lon="2.39298">
        <ele>650.017</ele>
        <time>2016-06-10T14:13:00Z</time>
      </trkpt>
    </trkseg>
  </trk>
</gpx>